<?xml version="1.0" encoding="UTF-8" standalone="no" ?>
<gpx xmlns="http://www.topografix.com/GPX/1/1" xmlns:xsi="http://www.w3.org/2001/XMLSchema-instance" xsi:schemaLocation="http://www.topografix.com/GPX/1/1 http://www.topografix.com/GPX/1/1/gpx.xsd" version="1.1" creator="VisuGPX - https://www.visugpx.com">
  <metadata>
    <name>DH Plateau des Petites Roches</name>
  </metadata>
  <wpt lat="45.31652" lon="5.89215">
    <ele>909.4</ele>
  </wpt>
  <wpt lat="45.31652" lon="5.89215">
    <ele>909.4</ele>
  </wpt>
  <trk>
    <name><![CDATA[14437872-Source du sanglier T3+]]></name>
    <extensions>
      <line xmlns="http://www.topografix.com/GPX/gpx_style/0/2">
        <color>00FF00</color>
        <width>4</width>
      </line>
    </extensions>
    <trkseg>
      <trkpt lat="45.32479" lon="5.88263">
        <ele>1272</ele>
        <time>2022-03-21T07:37:42Z</time>
      </trkpt>
      <trkpt lat="45.32481" lon="5.88314">
        <ele>1267</ele>
        <time>2022-03-21T07:37:50Z</time>
      </trkpt>
      <trkpt lat="45.32413" lon="5.88306">
        <ele>1252</ele>
        <time>2022-03-21T07:38:06Z</time>
      </trkpt>
      <trkpt lat="45.32443" lon="5.88104">
        <ele>1254</ele>
        <time>2022-03-21T07:38:40Z</time>
      </trkpt>
      <trkpt lat="45.32418" lon="5.88101">
        <ele>1242</ele>
        <time>2022-03-21T07:38:46Z</time>
      </trkpt>
      <trkpt lat="45.3237" lon="5.88151">
        <ele>1221</ele>
        <time>2022-03-21T07:39:00Z</time>
      </trkpt>
      <trkpt lat="45.32353" lon="5.88175">
        <ele>1213</ele>
        <time>2022-03-21T07:39:06Z</time>
      </trkpt>
      <trkpt lat="45.32329" lon="5.882">
        <ele>1203</ele>
        <time>2022-03-21T07:39:13Z</time>
      </trkpt>
      <trkpt lat="45.32306" lon="5.88203">
        <ele>1192</ele>
        <time>2022-03-21T07:39:18Z</time>
      </trkpt>
      <trkpt lat="45.32295" lon="5.88203">
        <ele>1187</ele>
        <time>2022-03-21T07:39:20Z</time>
      </trkpt>
      <trkpt lat="45.32276" lon="5.88213">
        <ele>1178</ele>
        <time>2022-03-21T07:39:25Z</time>
      </trkpt>
      <trkpt lat="45.32212" lon="5.88281">
        <ele>1151</ele>
        <time>2022-03-21T07:39:44Z</time>
      </trkpt>
      <trkpt lat="45.32169" lon="5.88324">
        <ele>1133</ele>
        <time>2022-03-21T07:39:56Z</time>
      </trkpt>
      <trkpt lat="45.32124" lon="5.8835">
        <ele>1113</ele>
        <time>2022-03-21T07:40:07Z</time>
      </trkpt>
      <trkpt lat="45.32073" lon="5.88379">
        <ele>1090</ele>
        <time>2022-03-21T07:40:20Z</time>
      </trkpt>
      <trkpt lat="45.32032" lon="5.88397">
        <ele>1073</ele>
        <time>2022-03-21T07:40:30Z</time>
      </trkpt>
      <trkpt lat="45.32004" lon="5.88429">
        <ele>1056</ele>
        <time>2022-03-21T07:40:39Z</time>
      </trkpt>
      <trkpt lat="45.31976" lon="5.88483">
        <ele>1039</ele>
        <time>2022-03-21T07:40:50Z</time>
      </trkpt>
      <trkpt lat="45.31964" lon="5.88541">
        <ele>1026</ele>
        <time>2022-03-21T07:41:00Z</time>
      </trkpt>
      <trkpt lat="45.31913" lon="5.88523">
        <ele>1020</ele>
        <time>2022-03-21T07:41:12Z</time>
      </trkpt>
      <trkpt lat="45.31868" lon="5.88511">
        <ele>1022</ele>
        <time>2022-03-21T07:41:23Z</time>
      </trkpt>
      <trkpt lat="45.31844" lon="5.88499">
        <ele>1024</ele>
        <time>2022-03-21T07:41:29Z</time>
      </trkpt>
      <trkpt lat="45.31819" lon="5.88575">
        <ele>1005</ele>
        <time>2022-03-21T07:41:42Z</time>
      </trkpt>
      <trkpt lat="45.31797" lon="5.88623">
        <ele>994</ele>
        <time>2022-03-21T07:41:52Z</time>
      </trkpt>
      <trkpt lat="45.31772" lon="5.8862">
        <ele>994</ele>
        <time>2022-03-21T07:41:58Z</time>
      </trkpt>
      <trkpt lat="45.31738" lon="5.8859">
        <ele>999</ele>
        <time>2022-03-21T07:42:07Z</time>
      </trkpt>
    </trkseg>
  </trk>
</gpx>